x

South Bass Island, Oh (sbio1) Weather Station

10:00pm - Sun 19th Oct 2014 All times are CDT. -5 hours from GMT.

  • Wind
    14mph, 16mph gusts
  • Air Temp 51°f
  • Sea Pressure 1016.6mb
  • South Bass Island, Oh
  • South Bass Island, Oh

More Historic Weather Station data

Upgrade to MSW Pro to gain access to the past 30 days of data for over 8000 Wavebouys and Weather Stations around the globe.

Join Pro

Comparision Forecast

View Surf forecast
   
Sun 10/19 10:00pm 14 16 mph 1016.6mb 51f
9:00pm 14 15 mph 1017.1mb 51f
8:00pm 13 15 mph 1017.8mb 51f
7:00pm 13 14 mph 1018.5mb 51f
6:00pm 15 16 mph 1018.9mb 51f
5:00pm 13 15 mph 1019.1mb 51f
4:00pm 11 14 mph 1019.6mb 51f
3:00pm 13 14 mph 1020.1mb 50f
2:00pm 3 5 mph 1021mb 48f
1:00pm 7 8 mph 1022.1mb 47f
12:00pm 7 9 mph 1022.8mb 46f
11:00am 11 13 mph 1023mb 46f
10:00am  -  2 mph 1023mb 46f
9:00am 9 11 mph 1023.2mb 44f
8:00am 3 6 mph 1022.5mb 44f
7:00am 5 7 mph 1022mb 44f
6:00am 9 11 mph 1021.6mb 44f
5:00am 13 14 mph 1021.2mb 45f
4:00am 15 17 mph 1020.7mb 45f
3:00am 18 21 mph 1020.4mb 46f
2:00am 14 15 mph 1020mb 47f
1:00am 13 17 mph 1020mb 47f
12:00am 13 20 mph 1019.6mb 46f
Sat 10/18 11:00pm 22 25 mph 1019.2mb 48f
10:00pm 26 30 mph 1018.6mb 49f
9:00pm 25 28 mph 1018.3mb 50f
8:00pm 23 25 mph 1018mb 49f
7:00pm 17 21 mph 1017.5mb 49f
6:00pm 23 24 mph 1016.6mb 49f
5:00pm 22 25 mph 1016mb 49f
4:00pm 22 26 mph 1015.1mb 49f
3:00pm 28 31 mph 1014.5mb 49f
2:00pm 24 26 mph 1013.9mb 49f
1:00pm 22 25 mph 1013.5mb 50f
12:00pm 21 29 mph 1013.2mb 49f
11:00am 25 28 mph 1012.2mb 49f
10:00am 22 28 mph 1011.6mb 48f
9:00am 31 33 mph 1010.5mb 48f
8:00am 28 31 mph 1009.7mb 49f
7:00am 32 34 mph 1008.8mb 49f
6:00am 31 34 mph 1008.1mb 49f
5:00am 31 34 mph 1007.4mb 49f
4:00am 32 36 mph 1006.4mb 51f
3:00am 33 38 mph 1005.7mb 51f
2:00am 37 43 mph 1005.2mb 51f
1:00am 39 44 mph 1004mb 54f
12:00am 23 26 mph 1004.3mb 56f
Fri 10/17 11:00pm 33 37 mph 1004mb 56f
10:00pm 25 28 mph 1004.1mb 56f
9:00pm 23 25 mph 1003.9mb 57f
8:00pm 24 26 mph 1003.3mb 59f
7:00pm 21 24 mph 1003.2mb 60f
6:00pm 18 20 mph 1002.3mb 62f
5:00pm 28 29 mph 1001.5mb 63f
4:00pm 17 20 mph 1000.9mb 63f
3:00pm 22 24 mph 1000.6mb 64f
2:00pm 23 25 mph 1000.3mb 63f
1:00pm 22 26 mph 1000.6mb 61f
12:00pm 24 26 mph 1001.1mb 60f
11:00am 25 28 mph 1001.3mb 59f
10:00am 23 26 mph 1002.2mb 58f
9:00am 24 28 mph 1002.9mb 56f
8:00am 22 24 mph 1003.7mb 56f
7:00am 22 25 mph 1003.6mb 56f
6:00am 21 23 mph 1004mb 56f
5:00am 18 21 mph 1004.4mb 57f
4:00am 18 20 mph 1005mb 57f
3:00am 24 28 mph 1005.3mb 57f
2:00am 20 23 mph 1005.7mb 57f
1:00am 17 20 mph 1006mb 57f
12:00am 18 21 mph 1006.3mb 57f
Thu 10/16 11:00pm 18 21 mph 1006.3mb 57f
10:00pm 13 14 mph 1006.6mb 58f
9:00pm 6
mph
1006.9mb 57f
8:00pm 7
mph
1007mb 57f
7:00pm 9
mph
1007mb 58f
6:00pm 11 13 mph 1006.5mb 59f
5:00pm 7 8 mph 1006.4mb 60f
4:00pm 3 5 mph 1006.4mb 60f
3:00pm 2
mph
1006.4mb 59f
2:00pm 7
mph
1006.4mb 61f
1:00pm 7
mph
1006.9mb 59f
12:00pm 10 11 mph 1007.5mb 60f
11:00am 6 7 mph 1007.5mb 59f
10:00am 11 13 mph 1007.8mb 58f
9:00am 3
mph
1007.5mb 60f
8:00am 7 8 mph 1007.6mb 58f
7:00am 10 11 mph 1007.1mb 58f
6:00am 9
mph
1007mb 57f
5:00am 7 8 mph 1006.8mb 57f